createdAt,value
2023-02-03T00:00:15.227Z,6.95
2023-02-03T00:02:43.705Z,6.77
2023-02-03T00:05:12.115Z,6.83
2023-02-03T00:07:41.067Z,6.98
2023-02-03T00:10:10.366Z,6.96
2023-02-03T00:12:38.739Z,6.97
2023-02-03T00:15:08.036Z,6.92
2023-02-03T00:17:37.776Z,6.97
2023-02-03T00:20:07.105Z,6.95
2023-02-03T00:22:35.417Z,6.86
2023-02-03T00:25:03.829Z,6.92
2023-02-03T00:27:33.231Z,6.99
2023-02-03T00:30:01.638Z,6.92
2023-02-03T00:32:30.409Z,6.93
2023-02-03T00:35:00.146Z,6.90
2023-02-03T00:37:28.577Z,6.89
2023-02-03T00:39:56.855Z,6.87
2023-02-03T00:42:25.166Z,7.01
2023-02-03T00:44:53.578Z,7.00
2023-02-03T00:47:22.085Z,6.88
2023-02-03T00:49:50.480Z,6.89
2023-02-03T00:52:20.259Z,6.76
2023-02-03T00:54:48.659Z,6.81
2023-02-03T00:57:18.532Z,7.07
2023-02-03T00:59:46.945Z,6.70
2023-02-03T01:02:16.840Z,6.93
2023-02-03T01:04:45.215Z,6.93
2023-02-03T01:07:13.892Z,6.95
2023-02-03T01:09:43.660Z,6.78
2023-02-03T01:12:12.412Z,6.75
2023-02-03T01:14:42.327Z,6.95
2023-02-03T01:17:10.921Z,6.93
2023-02-03T01:19:39.299Z,7.00
2023-02-03T01:22:07.656Z,6.86
2023-02-03T01:24:35.951Z,6.87
2023-02-03T01:27:06.228Z,6.92
2023-02-03T01:29:34.652Z,6.89
2023-02-03T01:32:03.215Z,6.97
2023-02-03T01:34:31.792Z,6.99
2023-02-03T01:37:00.691Z,6.68
2023-02-03T01:39:30.073Z,6.96
2023-02-03T01:41:58.782Z,6.77
2023-02-03T01:44:42.632Z,6.93
2023-02-03T01:47:28.768Z,6.78
2023-02-03T01:50:03.096Z,6.80
2023-02-03T01:52:33.490Z,6.81
2023-02-03T01:55:05.322Z,6.87
2023-02-03T01:57:39.351Z,6.98
2023-02-03T02:00:10.808Z,6.81
2023-02-03T02:02:44.036Z,6.84
2023-02-03T02:05:18.596Z,6.82
2023-02-03T02:07:48.858Z,6.88
2023-02-03T02:10:17.731Z,6.80
2023-02-03T02:12:46.224Z,6.73
2023-02-03T02:15:17.600Z,6.74
2023-02-03T02:18:02.873Z,6.83
2023-02-03T02:20:39.420Z,6.72
2023-02-03T02:23:39.840Z,6.71
2023-02-03T02:26:49.759Z,6.82
2023-02-03T02:29:47.227Z,6.73
2023-02-03T02:32:33.687Z,6.70
2023-02-03T02:35:10.666Z,6.65
2023-02-03T02:37:49.683Z,6.62
2023-02-03T02:40:26.361Z,6.52
2023-02-03T02:43:04.455Z,6.64
2023-02-03T02:45:40.612Z,6.59
2023-02-03T02:48:18.222Z,6.54
2023-02-03T02:50:49.414Z,6.75
2023-02-03T02:53:22.151Z,6.75
2023-02-03T02:55:54.622Z,6.63
2023-02-03T02:58:24.576Z,6.69
2023-02-03T03:00:52.913Z,6.75
2023-02-03T03:03:24.841Z,6.57
2023-02-03T03:05:55.991Z,6.63
2023-02-03T03:08:40.553Z,6.63
2023-02-03T03:11:09.028Z,6.54
2023-02-03T03:13:43.207Z,6.62
2023-02-03T03:16:13.315Z,6.73
2023-02-03T03:18:47.370Z,6.68
2023-02-03T03:21:23.593Z,6.68
2023-02-03T03:23:53.587Z,6.60
2023-02-03T03:26:28.761Z,6.59
2023-02-03T03:29:07.460Z,6.67
2023-02-03T03:31:36.111Z,6.66
2023-02-03T03:34:06.250Z,6.75
2023-02-03T03:36:41.789Z,6.77
2023-02-03T03:39:17.027Z,6.86
2023-02-03T03:41:55.453Z,6.76
2023-02-03T03:44:28.556Z,6.82
2023-02-03T03:47:04.648Z,6.87
2023-02-03T03:49:36.936Z,6.75
2023-02-03T03:52:10.245Z,6.73
2023-02-03T03:54:40.077Z,6.97
2023-02-03T03:57:15.445Z,6.63
2023-02-03T03:59:48.461Z,6.61
2023-02-03T04:02:18.373Z,6.57
2023-02-03T04:04:50.164Z,6.62
2023-02-03T04:07:19.905Z,6.54
2023-02-03T04:09:48.253Z,6.50
2023-02-03T04:12:23.687Z,6.55
2023-02-03T04:14:52.053Z,6.47
2023-02-03T04:17:20.526Z,6.58
2023-02-03T04:19:50.502Z,6.38
2023-02-03T04:22:18.815Z,6.50
2023-02-03T04:24:49.539Z,6.34
2023-02-03T04:27:17.904Z,6.33
2023-02-03T04:29:47.494Z,6.32
2023-02-03T04:32:15.797Z,6.33
2023-02-03T04:34:44.142Z,6.48
2023-02-03T04:37:14.504Z,6.33
2023-02-03T04:39:42.866Z,6.57
2023-02-03T04:42:11.124Z,6.45
2023-02-03T04:44:39.403Z,6.34
2023-02-03T04:47:07.692Z,6.40
2023-02-03T04:49:36.070Z,6.41
2023-02-03T04:52:04.503Z,6.61
2023-02-03T04:54:34.479Z,6.31
2023-02-03T04:57:02.900Z,6.34
2023-02-03T04:59:31.351Z,6.29
2023-02-03T05:01:59.914Z,6.44
2023-02-03T05:04:28.237Z,6.36
2023-02-03T05:06:57.548Z,6.28
2023-02-03T05:09:26.338Z,6.51
2023-02-03T05:11:56.189Z,6.44
2023-02-03T05:14:24.633Z,6.49
2023-02-03T05:16:56.184Z,6.57
2023-02-03T05:19:24.550Z,6.75
2023-02-03T05:21:52.910Z,6.52
2023-02-03T05:24:21.281Z,6.52
2023-02-03T05:26:49.776Z,6.57
2023-02-03T05:29:19.539Z,6.52
2023-02-03T05:31:47.881Z,6.66
2023-02-03T05:34:16.351Z,6.51
2023-02-03T05:36:44.684Z,6.41
2023-02-03T05:39:12.976Z,6.40
2023-02-03T05:41:52.383Z,6.36
2023-02-03T05:44:23.060Z,6.54
2023-02-03T05:46:53.194Z,6.65
2023-02-03T05:49:23.236Z,6.52
2023-02-03T05:51:52.912Z,6.58
2023-02-03T05:54:21.649Z,6.48
2023-02-03T05:56:50.142Z,6.48
2023-02-03T05:59:18.681Z,6.77
2023-02-03T06:01:48.332Z,6.52
2023-02-03T06:04:16.741Z,6.71
2023-02-03T06:06:47.627Z,6.70
2023-02-03T06:09:16.127Z,6.80
2023-02-03T06:11:44.388Z,6.66
2023-02-03T06:14:12.737Z,6.39
2023-02-03T06:16:41.118Z,6.77
2023-02-03T06:19:11.141Z,6.33
2023-02-03T06:21:39.632Z,6.80
2023-02-03T06:24:08.439Z,6.78
2023-02-03T06:26:36.957Z,6.64
2023-02-03T06:29:05.512Z,6.51
2023-02-03T06:31:33.977Z,6.44
2023-02-03T06:34:02.564Z,6.52
2023-02-03T06:36:32.337Z,6.43
2023-02-03T06:39:00.727Z,6.40
2023-02-03T06:41:30.588Z,6.37
2023-02-03T06:44:01.644Z,6.36
2023-02-03T06:46:30.923Z,6.28
2023-02-03T06:48:59.435Z,6.40
2023-02-03T06:51:27.838Z,6.46
2023-02-03T06:53:58.628Z,6.27
2023-02-03T06:56:26.994Z,6.35
2023-02-03T06:58:55.344Z,6.49
2023-02-03T07:01:23.709Z,6.35
2023-02-03T07:03:51.969Z,6.64
2023-02-03T07:06:20.363Z,6.51
2023-02-03T07:08:48.696Z,6.58
2023-02-03T07:11:18.401Z,6.52
2023-02-03T07:13:46.828Z,6.40
2023-02-03T07:16:17.364Z,6.54
2023-02-03T07:18:48.054Z,6.37
2023-02-03T07:21:17.775Z,6.54
2023-02-03T07:23:48.368Z,6.56
2023-02-03T07:26:18.857Z,6.67
2023-02-03T07:28:47.378Z,6.69
2023-02-03T07:31:16.151Z,6.69
2023-02-03T07:33:44.579Z,6.60
2023-02-03T07:36:13.117Z,6.78
2023-02-03T07:38:41.509Z,6.80
2023-02-03T07:41:09.893Z,6.67
2023-02-03T07:43:41.915Z,6.74
2023-02-03T07:46:10.341Z,6.87
2023-02-03T07:48:38.776Z,6.76
2023-02-03T07:51:07.101Z,6.88
2023-02-03T07:53:35.489Z,6.95
2023-02-03T07:56:05.345Z,6.88
2023-02-03T07:58:33.988Z,7.07
2023-02-03T08:01:11.726Z,6.95
2023-02-03T08:03:40.074Z,6.93
2023-02-03T08:06:09.139Z,6.96
2023-02-03T08:08:41.072Z,6.82
2023-02-03T08:11:09.384Z,6.81
2023-02-03T08:13:38.514Z,6.75
2023-02-03T08:16:08.680Z,6.83
2023-02-03T08:18:36.995Z,6.88
2023-02-03T08:21:05.588Z,6.65
2023-02-03T08:23:36.011Z,6.83
2023-02-03T08:26:04.452Z,6.74
2023-02-03T08:28:32.888Z,6.72
2023-02-03T08:31:01.492Z,6.81
2023-02-03T08:33:31.514Z,6.80
2023-02-03T08:36:01.137Z,6.77
2023-02-03T08:38:29.809Z,6.89
2023-02-03T08:40:58.154Z,6.94
2023-02-03T08:43:28.869Z,6.99
2023-02-03T08:45:57.275Z,6.96
2023-02-03T08:48:25.706Z,6.88
2023-02-03T08:50:55.357Z,6.94
2023-02-03T08:53:23.789Z,6.73
2023-02-03T08:55:52.321Z,6.80
2023-02-03T08:58:20.800Z,7.30
2023-02-03T09:00:49.928Z,7.29
2023-02-03T09:03:18.372Z,7.12
2023-02-03T09:05:46.770Z,7.03
2023-02-03T09:08:18.963Z,7.28
2023-02-03T09:10:47.466Z,7.17
2023-02-03T09:13:15.777Z,7.26
2023-02-03T09:15:44.484Z,7.62
2023-02-03T09:18:13.220Z,7.20
2023-02-03T09:20:41.583Z,7.40
2023-02-03T09:23:10.199Z,7.27
2023-02-03T09:25:39.932Z,7.37
2023-02-03T09:28:08.308Z,7.57
2023-02-03T09:30:39.735Z,7.40
2023-02-03T09:33:08.159Z,7.26
2023-02-03T09:35:36.546Z,7.42
2023-02-03T09:38:04.926Z,7.43
2023-02-03T09:40:35.999Z,7.49
2023-02-03T09:43:20.002Z,7.27
2023-02-03T09:45:48.416Z,7.35
2023-02-03T09:48:22.277Z,7.40
2023-02-03T09:50:52.313Z,7.38
2023-02-03T09:53:29.598Z,7.60
2023-02-03T09:56:00.064Z,7.61
2023-02-03T09:58:34.070Z,7.81
2023-02-03T10:01:05.702Z,7.62
2023-02-03T10:03:39.257Z,7.75
2023-02-03T10:06:28.046Z,7.30
2023-02-03T10:09:25.387Z,7.48
2023-02-03T10:12:13.258Z,7.38
2023-02-03T10:14:57.255Z,7.35
2023-02-03T10:17:32.122Z,7.45
2023-02-03T10:20:05.943Z,8.06
2023-02-03T10:22:39.020Z,7.87
2023-02-03T10:25:20.722Z,8.23
2023-02-03T10:27:58.479Z,8.27
2023-02-03T10:30:32.936Z,8.02
2023-02-03T10:33:10.991Z,7.87
2023-02-03T10:35:48.501Z,7.88
2023-02-03T10:38:36.223Z,7.97
2023-02-03T10:41:05.227Z,7.74
2023-02-03T10:43:51.701Z,8.10
2023-02-03T10:46:28.001Z,7.93
2023-02-03T10:48:57.318Z,7.87
2023-02-03T10:51:27.279Z,7.70
2023-02-03T10:53:55.648Z,7.61
2023-02-03T10:56:27.742Z,7.43
2023-02-03T10:58:58.468Z,7.68
2023-02-03T11:01:29.665Z,7.79
2023-02-03T11:04:03.214Z,7.75
2023-02-03T11:06:32.579Z,7.97
2023-02-03T11:09:01.720Z,7.69
2023-02-03T11:11:34.171Z,7.69
2023-02-03T11:14:13.893Z,7.92
2023-02-03T11:16:47.333Z,7.71
2023-02-03T11:19:19.202Z,7.68
2023-02-03T11:21:50.986Z,7.73
2023-02-03T11:24:21.782Z,7.91
2023-02-03T11:26:53.844Z,7.88
2023-02-03T11:29:26.738Z,7.84
2023-02-03T11:31:59.332Z,7.76
2023-02-03T11:34:30.845Z,7.91
2023-02-03T11:36:59.765Z,7.85
2023-02-03T11:39:35.513Z,8.36
2023-02-03T11:42:21.905Z,8.03
2023-02-03T11:44:50.704Z,8.54
2023-02-03T11:47:22.855Z,8.22
2023-02-03T11:50:18.425Z,8.13
2023-02-03T11:53:00.886Z,8.25
2023-02-03T11:55:49.799Z,8.46
2023-02-03T11:58:53.915Z,8.13
2023-02-03T12:01:34.501Z,8.24
2023-02-03T12:04:25.099Z,8.05
2023-02-03T12:07:11.549Z,8.09
2023-02-03T12:09:52.699Z,8.12
2023-02-03T12:12:42.067Z,8.40
2023-02-03T12:15:42.364Z,8.35
2023-02-03T12:18:25.156Z,8.22
2023-02-03T12:21:06.361Z,8.31
2023-02-03T12:23:56.452Z,8.13
2023-02-03T12:26:26.867Z,8.00
2023-02-03T12:29:03.577Z,7.96
2023-02-03T12:31:38.233Z,7.99
2023-02-03T12:34:12.105Z,7.89
2023-02-03T12:36:46.491Z,7.98
2023-02-03T12:39:20.896Z,7.96
2023-02-03T12:41:56.162Z,7.86
2023-02-03T12:44:27.586Z,8.02
2023-02-03T12:47:04.515Z,7.76
2023-02-03T12:49:42.462Z,8.12
2023-02-03T12:52:26.584Z,8.03
2023-02-03T12:55:06.875Z,8.12
2023-02-03T12:57:40.954Z,8.09
2023-02-03T13:00:21.538Z,8.03
2023-02-03T13:03:00.562Z,7.75
2023-02-03T13:05:53.972Z,7.96
2023-02-03T13:08:32.354Z,7.83
2023-02-03T13:11:15.053Z,7.84
2023-02-03T13:13:49.213Z,7.91
2023-02-03T13:16:21.575Z,7.99
2023-02-03T13:18:57.012Z,7.79
2023-02-03T13:21:25.469Z,7.73
2023-02-03T13:23:55.281Z,7.84
2023-02-03T13:26:48.604Z,7.78
2023-02-03T13:29:34.558Z,7.96
2023-02-03T13:32:17.181Z,7.81
2023-02-03T13:35:03.675Z,7.64
2023-02-03T13:37:54.762Z,7.74
2023-02-03T13:40:40.635Z,7.88
2023-02-03T13:43:28.387Z,7.82
2023-02-03T13:46:09.129Z,7.74
2023-02-03T13:48:38.372Z,7.65
2023-02-03T13:51:14.621Z,7.59
2023-02-03T13:53:47.383Z,7.75
2023-02-03T13:56:23.201Z,7.61
2023-02-03T13:59:28.533Z,7.58
2023-02-03T14:02:45.798Z,7.69
2023-02-03T14:05:41.502Z,7.48
2023-02-03T14:08:53.012Z,7.69
2023-02-03T14:11:41.458Z,7.74
2023-02-03T14:15:03.979Z,7.70
2023-02-03T14:18:08.835Z,7.89
2023-02-03T14:20:58.254Z,7.68
2023-02-03T14:23:30.668Z,7.62
2023-02-03T14:26:00.473Z,7.57
2023-02-03T14:28:40.647Z,7.86
2023-02-03T14:31:15.539Z,7.70
2023-02-03T14:33:57.079Z,7.68
2023-02-03T14:36:40.927Z,7.77
2023-02-03T14:39:55.417Z,7.78
2023-02-03T14:42:44.290Z,7.74
2023-02-03T14:45:23.636Z,7.83
2023-02-03T14:48:06.717Z,7.82
2023-02-03T14:50:48.489Z,7.94
2023-02-03T14:53:43.168Z,7.69
2023-02-03T14:56:28.129Z,7.87
2023-02-03T14:58:59.569Z,7.86
2023-02-03T15:01:44.728Z,7.74
2023-02-03T15:04:22.997Z,7.99
2023-02-03T15:06:52.418Z,7.89
2023-02-03T15:09:26.956Z,7.93
2023-02-03T15:11:55.325Z,7.79
2023-02-03T15:14:25.161Z,8.01
2023-02-03T15:16:57.571Z,7.89
2023-02-03T15:19:27.743Z,7.94
2023-02-03T15:21:56.382Z,7.89
2023-02-03T15:24:25.922Z,7.84
2023-02-03T15:26:55.001Z,7.85
2023-02-03T15:29:25.687Z,7.90
2023-02-03T15:31:57.072Z,7.89
2023-02-03T15:34:30.049Z,7.84
2023-02-03T15:37:00.719Z,7.86
2023-02-03T15:39:37.578Z,7.89
2023-02-03T15:42:09.514Z,7.82
2023-02-03T15:44:41.010Z,7.98
2023-02-03T15:47:20.329Z,7.83
2023-02-03T15:49:50.976Z,7.79
2023-02-03T15:52:21.887Z,7.47
2023-02-03T15:54:54.739Z,7.44
2023-02-03T15:57:25.334Z,7.33
2023-02-03T15:59:55.035Z,7.32
2023-02-03T16:02:28.113Z,7.37
2023-02-03T16:04:56.530Z,7.11
2023-02-03T16:07:25.766Z,6.97
2023-02-03T16:09:55.755Z,7.30
2023-02-03T16:12:24.711Z,6.93
2023-02-03T16:14:53.275Z,6.95
2023-02-03T16:17:26.311Z,6.96
2023-02-03T16:20:16.225Z,6.94
2023-02-03T16:22:45.484Z,6.88
2023-02-03T16:25:16.363Z,7.02
2023-02-03T16:27:45.311Z,6.79
2023-02-03T16:30:39.128Z,6.88
2023-02-03T16:33:31.929Z,6.82
2023-02-03T16:36:19.572Z,6.74
2023-02-03T16:39:05.587Z,6.85
2023-02-03T16:41:52.255Z,6.86
2023-02-03T16:44:37.797Z,6.85
2023-02-03T16:47:34.733Z,6.89
2023-02-03T16:50:36.450Z,6.89
2023-02-03T16:53:06.325Z,7.03
2023-02-03T16:55:34.435Z,7.02
2023-02-03T16:58:03.912Z,7.03
2023-02-03T17:00:31.940Z,6.92
2023-02-03T17:02:59.988Z,7.03
2023-02-03T17:05:28.538Z,7.09
2023-02-03T17:07:56.800Z,7.16
2023-02-03T17:10:24.808Z,7.05
2023-02-03T17:12:52.916Z,7.12
2023-02-03T17:15:22.342Z,7.18
2023-02-03T17:17:50.321Z,7.23
2023-02-03T17:20:18.403Z,7.18
2023-02-03T17:22:46.398Z,7.26
2023-02-03T17:25:14.507Z,7.31
2023-02-03T17:27:42.634Z,7.33
2023-02-03T17:30:11.783Z,7.37
2023-02-03T17:32:41.407Z,7.38
2023-02-03T17:35:11.593Z,7.56
2023-02-03T17:37:39.726Z,7.43
2023-02-03T17:54:06.685Z,7.52
2023-02-03T17:56:36.478Z,7.66
2023-02-03T17:59:06.532Z,7.50
2023-02-03T18:01:34.928Z,7.69
2023-02-03T18:04:06.259Z,7.66
2023-02-03T18:06:35.123Z,7.66
2023-02-03T18:09:04.431Z,7.64
2023-02-03T18:11:45.985Z,7.60
2023-02-03T18:14:16.383Z,7.58
2023-02-03T18:16:45.415Z,7.60
2023-02-03T18:19:16.616Z,7.48
2023-02-03T18:21:46.997Z,7.28
2023-02-03T18:24:16.822Z,7.54
2023-02-03T18:26:50.720Z,7.55
2023-02-03T18:29:19.207Z,7.43
2023-02-03T18:31:48.220Z,7.36
2023-02-03T18:34:18.215Z,7.37
2023-02-03T18:36:47.244Z,7.30
2023-02-03T18:39:16.403Z,7.22
2023-02-03T18:41:44.733Z,7.26
2023-02-03T18:44:13.150Z,7.24
2023-02-03T18:46:41.508Z,7.25
2023-02-03T18:49:10.383Z,7.42
2023-02-03T18:51:40.076Z,7.21
2023-02-03T18:54:08.445Z,7.22
2023-02-03T18:56:37.018Z,7.14
2023-02-03T18:59:09.654Z,7.34
2023-02-03T19:01:39.702Z,7.17
2023-02-03T19:04:08.421Z,7.18
2023-02-03T19:06:37.216Z,7.10
2023-02-03T19:09:07.357Z,7.33
2023-02-03T19:11:35.848Z,7.31
2023-02-03T19:14:04.652Z,7.20
2023-02-03T19:16:33.091Z,7.16
2023-02-03T19:19:01.934Z,7.30
2023-02-03T19:21:30.342Z,7.30
2023-02-03T19:23:58.654Z,7.37
2023-02-03T19:26:28.658Z,7.24
2023-02-03T19:28:57.085Z,7.19
2023-02-03T19:31:25.498Z,7.13
2023-02-03T19:33:53.950Z,7.24
2023-02-03T19:36:22.285Z,7.27
2023-02-03T19:38:50.733Z,7.32
2023-02-03T19:41:19.144Z,7.34
2023-02-03T19:43:51.978Z,7.21
2023-02-03T19:46:21.764Z,7.37
2023-02-03T19:48:50.300Z,7.30
2023-02-03T19:51:18.629Z,7.27
2023-02-03T19:53:46.965Z,7.17
2023-02-03T19:56:15.356Z,7.24
2023-02-03T19:58:45.922Z,7.35
2023-02-03T20:01:15.917Z,7.29
2023-02-03T20:03:44.406Z,7.30
2023-02-03T20:06:14.841Z,7.35
2023-02-03T20:08:43.313Z,7.27
2023-02-03T20:11:11.926Z,7.33
2023-02-03T20:13:43.482Z,7.31
2023-02-03T20:16:11.978Z,7.37
2023-02-03T20:18:42.030Z,7.39
2023-02-03T20:21:10.595Z,7.35
2023-02-03T20:23:39.056Z,7.44
2023-02-03T20:26:07.506Z,7.43
2023-02-03T20:28:35.811Z,7.45
2023-02-03T20:31:04.717Z,7.54
2023-02-03T20:33:33.360Z,7.52
2023-02-03T20:36:03.077Z,7.57
2023-02-03T20:38:33.992Z,7.54
2023-02-03T20:41:02.803Z,7.63
2023-02-03T20:43:31.836Z,7.48
2023-02-03T20:46:00.169Z,7.54
2023-02-03T20:48:28.583Z,7.55
2023-02-03T20:50:56.918Z,7.63
2023-02-03T20:53:27.268Z,7.63
2023-02-03T20:56:01.467Z,7.56
2023-02-03T20:58:35.817Z,7.66
2023-02-03T21:01:11.118Z,7.66
2023-02-03T21:03:56.980Z,7.72
2023-02-03T21:06:25.696Z,7.55
2023-02-03T21:09:02.708Z,7.60
2023-02-03T21:11:31.593Z,7.72
2023-02-03T21:14:00.148Z,7.77
2023-02-03T21:16:40.035Z,7.73
2023-02-03T21:19:15.931Z,7.73
2023-02-03T21:21:47.536Z,7.69
2023-02-03T21:24:26.458Z,7.79
2023-02-03T21:26:56.175Z,7.66
2023-02-03T21:29:27.037Z,7.77
2023-02-03T21:31:56.419Z,7.85
2023-02-03T21:34:30.230Z,7.79
2023-02-03T21:37:02.148Z,7.70
2023-02-03T21:39:35.036Z,7.74
2023-02-03T21:42:40.983Z,7.75
2023-02-03T21:45:28.432Z,7.77
2023-02-03T21:47:59.096Z,7.78
2023-02-03T21:50:30.313Z,7.72
2023-02-03T21:53:03.479Z,7.73
2023-02-03T21:55:33.159Z,7.70
2023-02-03T21:58:14.325Z,7.69
2023-02-03T22:02:56.797Z,7.64
2023-02-03T22:05:25.434Z,7.62
2023-02-03T22:07:54.730Z,7.58
2023-02-03T22:10:23.028Z,7.71
2023-02-03T22:12:51.325Z,7.70
2023-02-03T22:15:19.686Z,7.54
2023-02-03T22:17:50.467Z,7.81
2023-02-03T22:20:19.637Z,7.59
2023-02-03T22:22:48.035Z,7.65
2023-02-03T22:25:16.592Z,7.65
2023-02-03T22:27:47.980Z,7.71
2023-02-03T22:30:17.946Z,7.74
2023-02-03T22:32:46.259Z,7.76
2023-02-03T22:35:16.408Z,7.78
2023-02-03T22:37:44.796Z,7.71
2023-02-03T22:40:13.970Z,7.77
2023-02-03T22:42:42.436Z,7.71
2023-02-03T22:45:12.687Z,7.72
2023-02-03T22:47:41.341Z,7.89
2023-02-03T22:50:11.619Z,7.80
2023-02-03T22:52:41.378Z,7.63
2023-02-03T22:55:10.924Z,7.73
2023-02-03T22:57:40.676Z,7.62
2023-02-03T23:00:11.732Z,7.75
2023-02-03T23:02:40.348Z,7.66
2023-02-03T23:05:10.292Z,7.76
2023-02-03T23:07:39.622Z,7.62
2023-02-03T23:10:13.136Z,7.77
2023-02-03T23:12:41.528Z,7.67
2023-02-03T23:15:10.890Z,7.91
2023-02-03T23:17:42.263Z,7.91
2023-02-03T23:20:13.312Z,7.84
2023-02-03T23:22:41.770Z,7.80
2023-02-03T23:25:12.199Z,7.67
2023-02-03T23:27:40.705Z,7.55
2023-02-03T23:30:10.836Z,7.61
2023-02-03T23:32:39.273Z,7.73
2023-02-03T23:35:26.761Z,7.65
2023-02-03T23:37:57.423Z,7.56
2023-02-03T23:40:27.191Z,7.54
2023-02-03T23:42:55.499Z,7.64
2023-02-03T23:45:23.810Z,7.61
2023-02-03T23:47:52.194Z,7.48
2023-02-03T23:50:21.020Z,7.53
2023-02-03T23:52:49.885Z,7.46
2023-02-03T23:55:20.860Z,7.51
2023-02-03T23:57:50.997Z,7.70
